createdAt,value
2018-01-04T00:01:34.136Z,21.60
2018-01-04T00:04:01.489Z,15.60
2018-01-04T00:06:28.768Z,16.97
2018-01-04T00:08:56.044Z,18.80
2018-01-04T00:11:23.453Z,18.13
2018-01-04T00:13:50.740Z,12.63
2018-01-04T00:16:18.019Z,19.00
2018-01-04T00:18:45.529Z,26.73
2018-01-04T00:21:12.810Z,19.87
2018-01-04T00:23:40.066Z,18.70
2018-01-04T00:26:07.339Z,21.50
2018-01-04T00:28:34.613Z,20.20
2018-01-04T00:31:01.896Z,11.83
2018-01-04T00:33:29.163Z,9.20
2018-01-04T00:35:56.416Z,10.50
2018-01-04T00:38:23.752Z,13.90
2018-01-04T00:40:51.112Z,17.00
2018-01-04T00:43:18.447Z,10.70
2018-01-04T00:45:45.645Z,20.50
2018-01-04T00:48:12.908Z,18.77
2018-01-04T00:50:40.221Z,10.60
2018-01-04T00:53:08.320Z,12.13
2018-01-04T00:55:35.658Z,13.83
2018-01-04T00:58:02.908Z,19.90
2018-01-04T01:00:30.177Z,18.80
2018-01-04T01:02:57.436Z,22.43
2018-01-04T01:05:24.713Z,17.00
2018-01-04T01:07:52.026Z,27.17
2018-01-04T01:10:19.380Z,16.97
2018-01-04T01:12:46.643Z,16.77
2018-01-04T01:15:13.917Z,19.63
2018-01-04T01:17:41.350Z,19.33
2018-01-04T01:20:08.704Z,19.20
2018-01-04T01:22:35.961Z,20.97
2018-01-04T01:25:03.217Z,21.20
2018-01-04T01:27:30.485Z,17.90
2018-01-04T01:29:57.737Z,20.93
2018-01-04T01:32:25.011Z,23.90
2018-01-04T01:34:52.272Z,16.60
2018-01-04T01:37:19.541Z,21.07
2018-01-04T01:39:46.801Z,32.67
2018-01-04T01:42:14.080Z,23.70
2018-01-04T01:44:41.336Z,27.60
2018-01-04T01:47:08.688Z,19.27
2018-01-04T01:49:35.945Z,31.00
2018-01-04T01:52:03.224Z,20.23
2018-01-04T01:54:30.484Z,23.67
2018-01-04T01:56:57.787Z,22.63
2018-01-04T01:59:25.060Z,20.97
2018-01-04T02:01:52.311Z,19.33
2018-01-04T02:04:19.588Z,28.20
2018-01-04T02:06:46.854Z,22.33
2018-01-04T02:09:14.124Z,25.37
2018-01-04T02:11:41.388Z,24.27
2018-01-04T02:14:08.664Z,24.87
2018-01-04T02:16:35.917Z,29.63
2018-01-04T02:19:09.160Z,25.23
2018-01-04T02:21:42.210Z,25.90
2018-01-04T02:24:15.438Z,22.27
2018-01-04T02:26:48.538Z,23.00
2018-01-04T02:29:21.797Z,17.47
2018-01-04T02:31:54.993Z,23.40
2018-01-04T02:34:23.200Z,25.07
2018-01-04T02:36:56.625Z,17.50
2018-01-04T02:39:29.560Z,20.93
2018-01-04T02:42:02.567Z,17.83
2018-01-04T02:44:35.625Z,18.87
2018-01-04T02:47:02.781Z,30.57
2018-01-04T02:49:29.854Z,26.83
2018-01-04T02:51:56.914Z,21.43
2018-01-04T02:54:23.962Z,25.57
2018-01-04T02:56:51.032Z,29.67
2018-01-04T02:59:18.126Z,29.53
2018-01-04T03:01:45.195Z,14.13
2018-01-04T03:04:12.244Z,18.93
2018-01-04T03:06:39.378Z,21.60
2018-01-04T03:09:06.420Z,17.67
2018-01-04T03:11:33.501Z,19.17
2018-01-04T03:14:00.624Z,15.63
2018-01-04T03:16:27.704Z,15.23
2018-01-04T03:18:55.220Z,23.47
2018-01-04T03:21:22.290Z,17.60
2018-01-04T03:23:49.355Z,17.97
2018-01-04T03:26:22.281Z,17.87
2018-01-04T03:28:55.071Z,27.80
2018-01-04T03:31:28.010Z,13.50
2018-01-04T03:34:00.855Z,12.90
2018-01-04T03:36:33.768Z,23.93
2018-01-04T03:39:06.524Z,12.03
2018-01-04T03:41:39.505Z,20.70
2018-01-04T03:44:12.324Z,24.50
2018-01-04T03:46:45.247Z,14.83
2018-01-04T03:49:18.053Z,16.10
2018-01-04T03:51:50.923Z,14.00
2018-01-04T03:54:23.616Z,17.93
2018-01-04T03:56:56.596Z,16.40
2018-01-04T03:59:29.416Z,24.20
2018-01-04T04:02:02.324Z,19.73
2018-01-04T04:04:35.050Z,20.37
2018-01-04T04:07:07.885Z,20.83
2018-01-04T04:09:34.937Z,18.60
2018-01-04T04:12:02.070Z,14.50
2018-01-04T04:14:29.124Z,23.87
2018-01-04T04:16:56.176Z,13.63
2018-01-04T04:19:23.244Z,25.57
2018-01-04T04:21:50.298Z,34.73
2018-01-04T04:24:17.372Z,19.47
2018-01-04T04:26:44.420Z,28.03
2018-01-04T04:29:11.491Z,31.33
2018-01-04T04:31:38.556Z,19.20
2018-01-04T04:34:05.631Z,28.90
2018-01-04T04:36:32.676Z,35.53
2018-01-04T04:38:59.748Z,31.07
2018-01-04T04:41:26.800Z,26.17
2018-01-04T04:43:53.893Z,21.37
2018-01-04T04:46:20.944Z,25.40
2018-01-04T04:48:48.098Z,21.83
2018-01-04T04:51:15.249Z,31.27
2018-01-04T04:53:42.309Z,19.00
2018-01-04T04:56:09.371Z,28.83
2018-01-04T04:58:36.436Z,29.17
2018-01-04T05:01:04.569Z,28.97
2018-01-04T05:03:31.717Z,28.43
2018-01-04T05:05:58.792Z,21.50
2018-01-04T05:08:25.845Z,22.73
2018-01-04T05:10:52.975Z,26.93
2018-01-04T05:13:20.024Z,28.53
2018-01-04T05:15:47.076Z,21.33
2018-01-04T05:18:14.220Z,23.30
2018-01-04T05:20:41.269Z,23.90
2018-01-04T05:23:08.353Z,23.80
2018-01-04T05:25:35.404Z,38.03
2018-01-04T05:28:02.512Z,34.43
2018-01-04T05:30:29.566Z,24.20
2018-01-04T05:32:56.629Z,25.83
2018-01-04T05:35:23.680Z,28.60
2018-01-04T05:37:50.756Z,33.23
2018-01-04T05:40:17.865Z,31.03
2018-01-04T05:42:44.930Z,21.50
2018-01-04T05:45:12.056Z,20.00
2018-01-04T05:47:39.115Z,27.73
2018-01-04T05:50:06.260Z,24.20
2018-01-04T05:52:33.323Z,32.40
2018-01-04T05:55:00.456Z,23.77
2018-01-04T05:57:27.516Z,26.77
2018-01-04T05:59:54.579Z,23.30
2018-01-04T06:02:21.644Z,32.63
2018-01-04T06:04:48.711Z,26.80
2018-01-04T06:07:15.790Z,32.40
2018-01-04T06:09:42.863Z,20.93
2018-01-04T06:12:10.003Z,33.33
2018-01-04T06:14:37.085Z,23.27
2018-01-04T06:17:04.137Z,18.10
2018-01-04T06:19:31.208Z,29.40
2018-01-04T06:21:58.273Z,26.03
2018-01-04T06:24:25.323Z,34.70
2018-01-04T06:26:52.405Z,22.47
2018-01-04T06:29:19.449Z,27.97
2018-01-04T06:31:46.524Z,23.03
2018-01-04T06:34:13.569Z,28.70
2018-01-04T06:36:40.652Z,26.43
2018-01-04T06:39:07.705Z,32.90
2018-01-04T06:41:34.780Z,18.33
2018-01-04T06:44:01.826Z,26.43
2018-01-04T06:46:28.918Z,26.93
2018-01-04T06:48:55.968Z,23.37
2018-01-04T06:51:23.052Z,23.20
2018-01-04T06:53:50.112Z,28.30
2018-01-04T06:56:17.156Z,27.50
2018-01-04T06:58:44.225Z,22.40
2018-01-04T07:01:11.307Z,26.90
2018-01-04T07:03:38.357Z,27.67
2018-01-04T07:06:05.582Z,16.37
2018-01-04T07:08:32.735Z,21.93
2018-01-04T07:10:59.789Z,30.13
2018-01-04T07:13:26.861Z,20.60
2018-01-04T07:15:53.922Z,24.80
2018-01-04T07:18:21.001Z,21.30
2018-01-04T07:20:48.056Z,27.20
2018-01-04T07:23:15.224Z,18.53
2018-01-04T07:25:42.276Z,22.47
2018-01-04T07:28:09.347Z,24.03
2018-01-04T07:30:36.442Z,23.20
2018-01-04T07:33:03.488Z,29.93
2018-01-04T07:35:30.575Z,28.37
2018-01-04T07:37:57.652Z,23.77
2018-01-04T07:40:24.736Z,20.93
2018-01-04T07:42:52.000Z,27.10
2018-01-04T07:45:19.289Z,19.90
2018-01-04T07:47:46.540Z,18.23
2018-01-04T07:50:13.805Z,22.10
2018-01-04T07:52:41.101Z,16.50
2018-01-04T07:55:08.348Z,21.77
2018-01-04T07:57:35.607Z,23.40
2018-01-04T08:00:02.884Z,19.73
2018-01-04T08:02:30.136Z,14.93
2018-01-04T08:04:57.505Z,15.10
2018-01-04T08:07:24.788Z,23.33
2018-01-04T08:09:52.122Z,15.07
2018-01-04T08:12:19.484Z,19.93
2018-01-04T08:14:46.748Z,12.50
2018-01-04T08:17:14.093Z,18.35
2018-01-04T08:19:41.341Z,17.90
2018-01-04T08:22:08.626Z,10.50
2018-01-04T08:24:35.902Z,12.60
2018-01-04T08:27:03.160Z,10.27
2018-01-04T08:29:30.451Z,15.40
2018-01-04T08:31:57.708Z,12.40
2018-01-04T08:34:25.070Z,12.50
2018-01-04T08:36:52.469Z,14.23
2018-01-04T08:39:19.776Z,13.30
2018-01-04T08:41:47.028Z,27.13
2018-01-04T08:44:14.379Z,17.23
2018-01-04T08:46:41.670Z,13.57
2018-01-04T08:49:08.920Z,18.53
2018-01-04T08:51:36.173Z,12.73
2018-01-04T08:54:03.457Z,17.33
2018-01-04T08:56:30.756Z,12.43
2018-01-04T08:58:58.008Z,12.37
2018-01-04T09:01:25.260Z,14.10
2018-01-04T09:03:52.549Z,9.40
2018-01-04T09:06:19.817Z,13.30
2018-01-04T09:08:47.073Z,15.73
2018-01-04T09:11:14.348Z,13.33
2018-01-04T09:13:41.627Z,11.37
2018-01-04T09:16:08.881Z,12.33
2018-01-04T09:18:36.187Z,15.17
2018-01-04T09:21:03.488Z,8.53
2018-01-04T09:23:30.752Z,14.50
2018-01-04T09:25:58.029Z,13.07
2018-01-04T09:28:25.281Z,8.70
2018-01-04T09:30:52.571Z,12.50
2018-01-04T09:33:19.876Z,9.43
2018-01-04T09:35:47.136Z,10.50
2018-01-04T09:38:14.408Z,4.40
2018-01-04T09:40:42.065Z,7.40
2018-01-04T09:43:09.400Z,5.60
2018-01-04T09:45:36.680Z,4.80
2018-01-04T09:48:03.930Z,6.70
2018-01-04T09:50:31.204Z,6.83
2018-01-04T09:52:58.504Z,4.80
2018-01-04T09:55:25.787Z,2.80
2018-01-04T09:57:53.061Z,7.53
2018-01-04T10:00:20.316Z,4.60
2018-01-04T10:02:47.678Z,4.03
2018-01-04T10:05:14.848Z,2.83
2018-01-04T10:07:42.096Z,6.43
2018-01-04T10:10:09.376Z,5.07
2018-01-04T10:12:36.729Z,3.97
2018-01-04T10:15:04.013Z,5.63
2018-01-04T10:17:31.256Z,2.70
2018-01-04T10:19:58.536Z,3.80
2018-01-04T10:22:25.835Z,2.77
2018-01-04T10:24:53.056Z,5.00
2018-01-04T10:27:20.352Z,1.47
2018-01-04T10:29:47.625Z,1.47
2018-01-04T10:32:14.875Z,2.00
2018-01-04T10:34:42.128Z,2.80
2018-01-04T10:37:09.396Z,1.80
2018-01-04T10:39:36.648Z,2.33
2018-01-04T10:42:03.932Z,2.97
2018-01-04T10:44:31.197Z,1.47
2018-01-04T10:46:58.449Z,2.57
2018-01-04T10:49:25.727Z,2.40
2018-01-04T10:51:52.981Z,1.63
2018-01-04T10:54:20.259Z,2.03
2018-01-04T10:56:47.509Z,2.50
2018-01-04T10:59:14.788Z,3.70
2018-01-04T11:01:42.040Z,1.50
2018-01-04T11:04:09.356Z,1.70
2018-01-04T11:06:36.716Z,2.17
2018-01-04T11:09:03.964Z,3.00
2018-01-04T11:11:31.221Z,2.80
2018-01-04T11:13:58.579Z,1.70
2018-01-04T11:16:25.833Z,2.07
2018-01-04T11:18:53.108Z,1.80
2018-01-04T11:21:20.352Z,1.20
2018-01-04T11:23:47.606Z,1.47
2018-01-04T11:26:14.880Z,1.50
2018-01-04T11:28:42.160Z,4.60
2018-01-04T11:31:09.459Z,1.93
2018-01-04T11:33:36.716Z,1.57
2018-01-04T11:36:04.064Z,1.63
2018-01-04T11:38:31.420Z,2.23
2018-01-04T11:40:58.667Z,2.23
2018-01-04T11:43:25.924Z,2.07
2018-01-04T11:45:53.202Z,1.30
2018-01-04T11:48:20.448Z,2.00
2018-01-04T11:50:47.793Z,2.77
2018-01-04T11:53:15.044Z,2.03
2018-01-04T11:55:42.297Z,1.50
2018-01-04T11:58:09.564Z,1.33
2018-01-04T12:00:36.904Z,2.30
2018-01-04T12:03:04.153Z,1.83
2018-01-04T12:05:31.408Z,2.03
2018-01-04T12:07:58.765Z,1.50
2018-01-04T12:10:26.043Z,1.80
2018-01-04T12:12:53.289Z,1.57
2018-01-04T12:15:20.571Z,1.13
2018-01-04T12:17:47.840Z,1.30
2018-01-04T12:20:15.140Z,1.10
2018-01-04T12:22:42.485Z,1.17
2018-01-04T12:25:09.774Z,1.30
2018-01-04T12:27:37.024Z,1.13
2018-01-04T12:30:04.278Z,0.80
2018-01-04T12:32:31.555Z,0.80
2018-01-04T12:34:58.803Z,0.63
2018-01-04T12:37:26.052Z,0.70
2018-01-04T12:39:53.330Z,0.60
2018-01-04T12:42:20.581Z,0.60
2018-01-04T12:44:47.867Z,0.70
2018-01-04T12:47:15.132Z,0.70
2018-01-04T12:49:42.409Z,0.60
2018-01-04T12:52:09.732Z,1.27
2018-01-04T12:54:37.005Z,0.60
2018-01-04T12:57:04.278Z,0.70
2018-01-04T12:59:31.564Z,1.70
2018-01-04T13:01:58.858Z,1.10
2018-01-04T13:04:26.200Z,0.60
2018-01-04T13:06:53.661Z,0.70
2018-01-04T13:09:20.912Z,0.73
2018-01-04T13:11:48.168Z,0.70
2018-01-04T13:14:15.444Z,0.70
2018-01-04T13:16:42.699Z,0.93
2018-01-04T13:19:09.976Z,0.90
2018-01-04T13:21:37.228Z,0.60
2018-01-04T13:24:04.509Z,0.93
2018-01-04T13:26:31.846Z,1.13
2018-01-04T13:28:59.105Z,0.60
2018-01-04T13:31:26.348Z,1.73
2018-01-04T13:33:53.625Z,0.97
2018-01-04T13:36:20.914Z,0.80
2018-01-04T13:38:48.176Z,0.60
2018-01-04T13:41:15.514Z,0.60
2018-01-04T13:43:42.776Z,0.60
2018-01-04T13:46:10.124Z,0.70
2018-01-04T13:48:37.442Z,0.80
2018-01-04T13:51:04.692Z,0.70
2018-01-04T13:53:31.971Z,0.70
2018-01-04T13:55:59.229Z,0.93
2018-01-04T13:58:26.476Z,0.73
2018-01-04T14:00:54.592Z,0.90
2018-01-04T14:03:21.924Z,0.80
2018-01-04T14:05:49.200Z,0.80
2018-01-04T14:08:16.537Z,1.10
2018-01-04T14:10:43.893Z,0.60
2018-01-04T14:13:11.135Z,0.90
2018-01-04T14:15:38.497Z,1.00
2018-01-04T14:18:05.753Z,1.20
2018-01-04T14:20:33.158Z,1.20
2018-01-04T14:23:00.437Z,1.37
2018-01-04T14:25:27.821Z,1.57
2018-01-04T14:27:55.074Z,1.30
2018-01-04T14:30:22.669Z,1.50
2018-01-04T14:32:50.058Z,1.73
2018-01-04T14:35:17.354Z,1.70
2018-01-04T14:37:44.941Z,2.17
2018-01-04T14:40:12.268Z,1.70
2018-01-04T14:42:39.520Z,1.73
2018-01-04T14:45:06.787Z,1.83
2018-01-04T14:47:34.062Z,2.20
2018-01-04T14:50:01.320Z,2.33
2018-01-04T14:52:28.732Z,2.10
2018-01-04T14:54:56.007Z,2.00
2018-01-04T14:57:23.377Z,2.30
2018-01-04T14:59:50.604Z,1.73
2018-01-04T15:02:17.952Z,1.40
2018-01-04T15:04:45.199Z,1.63
2018-01-04T15:07:12.483Z,1.83
2018-01-04T15:09:39.724Z,1.43
2018-01-04T15:12:07.068Z,1.53
2018-01-04T15:14:34.322Z,1.40
2018-01-04T15:17:01.600Z,1.83
2018-01-04T15:19:28.844Z,1.10
2018-01-04T15:21:56.185Z,1.50
2018-01-04T15:24:23.460Z,1.40
2018-01-04T15:26:50.777Z,1.57
2018-01-04T15:29:18.054Z,1.27
2018-01-04T15:31:45.296Z,1.50
2018-01-04T15:34:12.578Z,3.03
2018-01-04T15:36:39.868Z,3.30
2018-01-04T15:39:07.120Z,3.87
2018-01-04T15:41:34.423Z,3.77
2018-01-04T15:44:01.700Z,4.20
2018-01-04T15:46:28.968Z,2.43
2018-01-04T15:48:56.252Z,27.67
2018-01-04T15:51:23.504Z,1.60
2018-01-04T15:53:50.761Z,1.20
2018-01-04T15:56:18.040Z,0.97
2018-01-04T15:58:45.292Z,1.30
2018-01-04T16:01:12.537Z,0.80
2018-01-04T16:03:39.812Z,1.30
2018-01-04T16:06:07.064Z,0.93
2018-01-04T16:08:34.400Z,0.93
2018-01-04T16:11:01.694Z,0.93
2018-01-04T16:13:28.945Z,2.13
2018-01-04T16:15:56.268Z,1.03
2018-01-04T16:18:23.548Z,1.00
2018-01-04T16:20:50.875Z,0.80
2018-01-04T16:23:18.148Z,0.87
2018-01-04T16:25:45.489Z,1.43
2018-01-04T16:28:12.813Z,1.47
2018-01-04T16:30:40.026Z,0.87
2018-01-04T16:33:07.281Z,1.40
2018-01-04T16:35:34.553Z,0.87
2018-01-04T16:38:01.852Z,0.70
2018-01-04T16:40:29.128Z,2.60
2018-01-04T16:42:56.368Z,1.67
2018-01-04T16:45:23.719Z,0.70
2018-01-04T16:47:51.004Z,1.30
2018-01-04T16:50:18.241Z,0.93
2018-01-04T16:52:45.905Z,1.30
2018-01-04T16:55:13.120Z,1.37
2018-01-04T16:57:40.408Z,1.30
2018-01-04T17:00:07.688Z,3.03
2018-01-04T17:02:35.000Z,1.20
2018-01-04T17:05:02.280Z,2.60
2018-01-04T17:07:29.561Z,2.93
2018-01-04T17:09:56.803Z,2.37
2018-01-04T17:12:24.049Z,1.83
2018-01-04T17:14:51.342Z,1.63
2018-01-04T17:17:18.591Z,1.90
2018-01-04T17:19:45.832Z,1.80
2018-01-04T17:22:13.113Z,1.73
2018-01-04T17:24:40.356Z,1.27
2018-01-04T17:27:07.628Z,1.00
2018-01-04T17:29:34.880Z,1.73
2018-01-04T17:32:02.249Z,2.30
2018-01-04T17:34:29.498Z,2.40
2018-01-04T17:36:56.988Z,4.33
2018-01-04T17:39:24.280Z,2.00
2018-01-04T17:41:51.568Z,7.37
2018-01-04T17:44:18.822Z,2.70
2018-01-04T17:46:46.175Z,1.57
2018-01-04T17:49:13.448Z,1.60
2018-01-04T17:51:40.700Z,1.67
2018-01-04T17:54:07.974Z,1.97
2018-01-04T17:56:35.219Z,1.53
2018-01-04T17:59:02.521Z,1.73
2018-01-04T18:01:29.800Z,4.90
2018-01-04T18:03:57.057Z,1.60
2018-01-04T18:06:24.409Z,1.23
2018-01-04T18:08:51.680Z,2.07
2018-01-04T18:11:18.973Z,1.77
2018-01-04T18:13:46.214Z,1.50
2018-01-04T18:16:13.484Z,1.43
2018-01-04T18:18:40.759Z,3.33
2018-01-04T18:21:08.000Z,1.20
2018-01-04T18:23:35.293Z,1.70
2018-01-04T18:26:02.544Z,4.10
2018-01-04T18:28:29.801Z,0.90
2018-01-04T18:30:57.089Z,1.00
2018-01-04T18:33:24.339Z,0.80
2018-01-04T18:35:51.653Z,1.03
2018-01-04T18:38:19.014Z,1.33
2018-01-04T18:40:46.265Z,1.77
2018-01-04T18:43:13.520Z,1.30
2018-01-04T18:45:40.896Z,2.50
2018-01-04T18:48:08.150Z,0.70
2018-01-04T18:50:35.489Z,1.13
2018-01-04T18:53:02.741Z,0.90
2018-01-04T18:55:30.012Z,0.90
2018-01-04T18:57:57.266Z,1.10
2018-01-04T19:00:24.541Z,1.33
2018-01-04T19:02:51.793Z,1.67
2018-01-04T19:05:19.040Z,1.67
2018-01-04T19:07:46.328Z,1.97
2018-01-04T19:10:13.608Z,1.80
2018-01-04T19:12:40.863Z,4.33
2018-01-04T19:15:08.152Z,1.90
2018-01-04T19:17:35.475Z,2.90
2018-01-04T19:20:02.757Z,2.80
2018-01-04T19:22:29.996Z,4.60
2018-01-04T19:24:57.334Z,4.03
2018-01-04T19:27:24.591Z,4.80
2018-01-04T19:29:51.948Z,2.03
2018-01-04T19:32:19.212Z,3.20
2018-01-04T19:34:46.476Z,4.70
2018-01-04T19:37:13.812Z,5.90
2018-01-04T19:39:41.056Z,4.77
2018-01-04T19:42:10.492Z,7.60
2018-01-04T19:44:37.779Z,9.07
2018-01-04T19:47:05.016Z,2.67
2018-01-04T19:49:32.292Z,6.57
2018-01-04T19:51:59.552Z,10.60
2018-01-04T19:54:26.824Z,11.87
2018-01-04T19:56:54.091Z,10.93
2018-01-04T19:59:21.384Z,9.93
2018-01-04T20:01:48.642Z,14.03
2018-01-04T20:04:15.907Z,15.60
2018-01-04T20:06:43.179Z,17.00
2018-01-04T20:09:10.467Z,13.07
2018-01-04T20:11:37.811Z,12.20
2018-01-04T20:14:05.153Z,19.90
2018-01-04T20:16:32.377Z,11.57
2018-01-04T20:18:59.632Z,13.63
2018-01-04T20:21:26.906Z,13.73
2018-01-04T20:23:54.160Z,12.00
2018-01-04T20:26:21.436Z,16.40
2018-01-04T20:28:48.690Z,15.77
2018-01-04T20:31:15.968Z,16.03
2018-01-04T20:33:43.232Z,16.20
2018-01-04T20:36:10.493Z,10.97
2018-01-04T20:38:37.760Z,13.03
2018-01-04T20:41:05.024Z,25.53
2018-01-04T20:43:32.294Z,18.80
2018-01-04T20:45:59.549Z,14.83
2018-01-04T20:48:26.820Z,13.57
2018-01-04T20:50:54.085Z,18.57
2018-01-04T20:53:21.356Z,16.70
2018-01-04T20:55:48.616Z,20.47
2018-01-04T20:58:15.932Z,18.37
2018-01-04T21:00:43.328Z,12.20
2018-01-04T21:03:10.710Z,16.80
2018-01-04T21:05:39.028Z,16.33
2018-01-04T21:08:06.596Z,16.10
2018-01-04T21:10:33.858Z,16.67
2018-01-04T21:13:01.436Z,17.47
2018-01-04T21:15:28.906Z,20.23
2018-01-04T21:17:56.192Z,20.93
2018-01-04T21:20:23.476Z,18.57
2018-01-04T21:22:50.827Z,21.60
2018-01-04T21:25:19.352Z,26.23
2018-01-04T21:27:46.816Z,23.00
2018-01-04T21:30:14.088Z,16.20
2018-01-04T21:32:41.353Z,11.53
2018-01-04T21:35:08.626Z,11.93
2018-01-04T21:37:35.880Z,20.27
2018-01-04T21:40:03.190Z,14.40
2018-01-04T21:42:30.421Z,18.27
2018-01-04T21:44:57.901Z,19.83
2018-01-04T21:47:25.544Z,11.03
2018-01-04T21:49:52.968Z,17.97
2018-01-04T21:52:21.484Z,20.77
2018-01-04T21:54:49.015Z,21.33
2018-01-04T21:57:17.360Z,22.03
2018-01-04T21:59:44.884Z,20.63
2018-01-04T22:02:13.537Z,18.60
2018-01-04T22:04:41.685Z,21.50
2018-01-04T22:07:08.958Z,20.60
2018-01-04T22:09:37.332Z,15.37
2018-01-04T22:12:06.269Z,16.17
2018-01-04T22:14:35.021Z,17.70
2018-01-04T22:17:02.596Z,17.73
2018-01-04T22:19:29.853Z,13.07
2018-01-04T22:21:57.193Z,21.60
2018-01-04T22:24:24.651Z,15.97
2018-01-04T22:26:51.914Z,18.10
2018-01-04T22:29:19.180Z,15.67
2018-01-04T22:31:46.514Z,17.57
2018-01-04T22:34:13.868Z,12.83
2018-01-04T22:36:41.123Z,13.47
2018-01-04T22:39:08.392Z,13.40
2018-01-04T22:41:35.651Z,19.17
2018-01-04T22:44:02.920Z,18.13
2018-01-04T22:46:30.172Z,16.77
2018-01-04T22:48:57.493Z,24.83
2018-01-04T22:51:24.854Z,15.17
2018-01-04T22:53:52.234Z,14.47
2018-01-04T22:56:19.555Z,17.40
2018-01-04T22:58:46.825Z,18.20
2018-01-04T23:01:14.083Z,12.60
2018-01-04T23:03:41.419Z,20.63
2018-01-04T23:06:08.691Z,15.20
2018-01-04T23:08:36.028Z,15.87
2018-01-04T23:11:03.285Z,16.27
2018-01-04T23:13:30.539Z,17.80
2018-01-04T23:15:57.807Z,10.07
2018-01-04T23:18:25.151Z,16.17
2018-01-04T23:20:52.411Z,19.20
2018-01-04T23:23:19.676Z,16.67
2018-01-04T23:25:47.105Z,14.57
2018-01-04T23:28:14.356Z,18.43
2018-01-04T23:30:41.716Z,24.60
2018-01-04T23:33:08.975Z,12.03
2018-01-04T23:35:36.244Z,17.50
2018-01-04T23:38:03.501Z,17.80
2018-01-04T23:40:30.768Z,21.73
2018-01-04T23:42:58.019Z,13.10
2018-01-04T23:45:25.341Z,14.73
2018-01-04T23:47:52.601Z,21.73
2018-01-04T23:50:19.959Z,13.60
2018-01-04T23:52:47.820Z,14.13
2018-01-04T23:55:15.105Z,15.90
2018-01-04T23:57:42.361Z,19.83
